sensor_id;sensor_type;location;lat;lon;timestamp;pressure;altitude;pressure_sealevel;temperature;humidity
38038;BME280;23843;51.320;12.340;2022-10-16T04:32:09;100171.16;;;15.85;90.25
38038;BME280;23843;51.320;12.340;2022-10-16T04:34:34;100172.13;;;15.84;90.04
38038;BME280;23843;51.320;12.340;2022-10-16T04:37:00;100173.09;;;15.83;89.85
38038;BME280;23843;51.320;12.340;2022-10-16T04:39:25;100175.88;;;15.81;90.16
38038;BME280;23843;51.320;12.340;2022-10-16T04:41:50;100176.97;;;15.79;90.01
38038;BME280;23843;51.320;12.340;2022-10-16T04:44:16;100183.16;;;15.79;90.60
38038;BME280;23843;51.320;12.340;2022-10-16T04:46:41;100178.06;;;15.76;90.36
38038;BME280;23843;51.320;12.340;2022-10-16T04:49:08;100182.56;;;15.76;90.34
38038;BME280;23843;51.320;12.340;2022-10-16T04:51:33;100192.41;;;15.75;90.11
38038;BME280;23843;51.320;12.340;2022-10-16T04:53:59;100184.38;;;15.75;90.15
38038;BME280;23843;51.320;12.340;2022-10-16T04:56:24;100194.94;;;15.77;90.13
38038;BME280;23843;51.320;12.340;2022-10-16T04:58:49;100197.34;;;15.80;90.34
38038;BME280;23843;51.320;12.340;2022-10-16T05:01:15;100194.56;;;15.81;89.62
38038;BME280;23843;51.320;12.340;2022-10-16T05:03:40;100206.09;;;15.82;89.97
38038;BME280;23843;51.320;12.340;2022-10-16T05:06:07;100218.50;;;15.83;89.76
38038;BME280;23843;51.320;12.340;2022-10-16T05:08:32;100209.63;;;15.82;90.16
38038;BME280;23843;51.320;12.340;2022-10-16T05:10:58;100210.72;;;15.80;89.85
38038;BME280;23843;51.320;12.340;2022-10-16T05:13:23;100215.09;;;15.81;90.06
38038;BME280;23843;51.320;12.340;2022-10-16T05:15:49;100207.09;;;15.81;90.15
38038;BME280;23843;51.320;12.340;2022-10-16T05:18:14;100205.38;;;15.80;90.32
38038;BME280;23843;51.320;12.340;2022-10-16T05:20:40;100208.19;;;15.78;91.62
38038;BME280;23843;51.320;12.340;2022-10-16T05:23:07;100206.47;;;15.77;91.01
38038;BME280;23843;51.320;12.340;2022-10-16T05:25:33;100206.72;;;15.74;nan
38038;BME280;23843;51.320;12.340;2022-10-16T05:27:58;100211.09;;;15.75;91.20
38038;BME280;23843;51.320;12.340;2022-10-16T05:30:23;100220.78;;;15.76;90.72
38038;BME280;23843;51.320;12.340;2022-10-16T05:32:49;100222.47;;;15.77;90.16
38038;BME280;23843;51.320;12.340;2022-10-16T05:35:15;100219.94;;;15.76;90.64
38038;BME280;23843;51.320;12.340;2022-10-16T05:37:41;100218.22;;;15.75;90.64
38038;BME280;23843;51.320;12.340;2022-10-16T05:40:09;100219.09;;;15.75;90.30
38038;BME280;23843;51.320;12.340;2022-10-16T05:42:35;100219.09;;;15.75;90.24
38038;BME280;23843;51.320;12.340;2022-10-16T05:45:00;100226.13;;;15.76;90.15
38038;BME280;23843;51.320;12.340;2022-10-16T05:47:26;100224.19;;;15.78;89.97
38038;BME280;23843;51.320;12.340;2022-10-16T05:49:51;100225.66;;;15.82;90.05
38038;BME280;23843;51.320;12.340;2022-10-16T05:52:16;100232.47;;;15.87;90.21
38038;BME280;23843;51.320;12.340;2022-10-16T05:54:42;100238.44;;;15.90;89.81
38038;BME280;23843;51.320;12.340;2022-10-16T05:57:08;100237.94;;;15.96;89.74
38038;BME280;23843;51.320;12.340;2022-10-16T05:59:34;100242.19;;;15.99;89.38
38038;BME280;23843;51.320;12.340;2022-10-16T06:01:59;100237.56;;;16.01;89.53
38038;BME280;23843;51.320;12.340;2022-10-16T06:04:24;100240.72;;;16.06;89.33
38038;BME280;23843;51.320;12.340;2022-10-16T06:06:50;100245.47;;;16.14;89.24
38038;BME280;23843;51.320;12.340;2022-10-16T06:09:15;100255.53;;;16.21;89.29
38038;BME280;23843;51.320;12.340;2022-10-16T06:11:41;100253.13;;;16.30;89.29
38038;BME280;23843;51.320;12.340;2022-10-16T06:14:08;100259.53;;;16.38;89.01
38038;BME280;23843;51.320;12.340;2022-10-16T06:16:35;100246.44;;;16.46;88.51
38038;BME280;23843;51.320;12.340;2022-10-16T06:19:00;100250.16;;;16.55;88.37
38038;BME280;23843;51.320;12.340;2022-10-16T06:21:26;100247.75;;;16.63;88.04
38038;BME280;23843;51.320;12.340;2022-10-16T06:23:52;100257.94;;;16.69;87.70
38038;BME280;23843;51.320;12.340;2022-10-16T06:26:20;100253.06;;;16.75;87.73
38038;BME280;23843;51.320;12.340;2022-10-16T06:28:46;100260.13;;;16.76;87.17
38038;BME280;23843;51.320;12.340;2022-10-16T06:31:14;100260.63;;;16.81;87.13
38038;BME280;23843;51.320;12.340;2022-10-16T06:33:40;100265.47;;;16.87;86.79
38038;BME280;23843;51.320;12.340;2022-10-16T06:36:08;100272.00;;;16.94;86.77
38038;BME280;23843;51.320;12.340;2022-10-16T06:38:34;100277.81;;;16.99;86.78
38038;BME280;23843;51.320;12.340;2022-10-16T06:41:01;100278.44;;;17.03;86.59
38038;BME280;23843;51.320;12.340;2022-10-16T06:43:28;100279.03;;;17.06;86.30
38038;BME280;23843;51.320;12.340;2022-10-16T06:45:54;100279.91;;;17.07;85.90
38038;BME280;23843;51.320;12.340;2022-10-16T06:48:22;100284.25;;;17.08;86.04
38038;BME280;23843;51.320;12.340;2022-10-16T06:50:56;100287.78;;;17.08;85.90
38038;BME280;23843;51.320;12.340;2022-10-16T06:53:21;100285.09;;;17.08;85.76
38038;BME280;23843;51.320;12.340;2022-10-16T06:55:46;100287.06;;;17.06;86.02
38038;BME280;23843;51.320;12.340;2022-10-16T06:58:12;100288.78;;;17.07;86.17
38038;BME280;23843;51.320;12.340;2022-10-16T07:00:37;100295.81;;;17.08;86.04
38038;BME280;23843;51.320;12.340;2022-10-16T07:03:02;100292.19;;;17.09;85.98
38038;BME280;23843;51.320;12.340;2022-10-16T07:05:29;100288.78;;;17.07;86.17
38038;BME280;23843;51.320;12.340;2022-10-16T07:07:55;100288.63;;;17.09;86.31
38038;BME280;23843;51.320;12.340;2022-10-16T07:10:20;100291.91;;;17.13;86.56
38038;BME280;23843;51.320;12.340;2022-10-16T07:12:45;100281.22;;;17.13;86.63
38038;BME280;23843;51.320;12.340;2022-10-16T07:15:11;100247.53;;;17.10;86.52
38038;BME280;23843;51.320;12.340;2022-10-16T07:17:36;100238.75;;;17.08;87.14
38038;BME280;23843;51.320;12.340;2022-10-16T07:20:02;100244.97;;;17.08;87.92
38038;BME280;23843;51.320;12.340;2022-10-16T07:22:29;100271.94;;;17.17;87.68
38038;BME280;23843;51.320;12.340;2022-10-16T07:24:54;100283.59;;;17.27;87.24
38038;BME280;23843;51.320;12.340;2022-10-16T07:27:20;100295.97;;;17.39;87.10
38038;BME280;23843;51.320;12.340;2022-10-16T07:29:45;100302.13;;;17.51;86.81
38038;BME280;23843;51.320;12.340;2022-10-16T07:32:10;100317.16;;;17.63;86.51
38038;BME280;23843;51.320;12.340;2022-10-16T07:34:36;100323.69;;;17.70;86.05
38038;BME280;23843;51.320;12.340;2022-10-16T07:37:01;100318.78;;;17.75;85.78
38038;BME280;23843;51.320;12.340;2022-10-16T07:39:28;100323.81;;;17.80;85.69
38038;BME280;23843;51.320;12.340;2022-10-16T07:41:53;100326.41;;;17.91;85.43
38038;BME280;23843;51.320;12.340;2022-10-16T07:44:18;100313.22;;;18.00;85.13
38038;BME280;23843;51.320;12.340;2022-10-16T07:46:44;100322.50;;;18.78;84.55
38038;BME280;23843;51.320;12.340;2022-10-16T07:49:09;100324.63;;;18.94;82.10
38038;BME280;23843;51.320;12.340;2022-10-16T07:51:35;100327.19;;;18.95;82.05
38038;BME280;23843;51.320;12.340;2022-10-16T07:54:00;100327.22;;;19.05;81.19
38038;BME280;23843;51.320;12.340;2022-10-16T07:56:27;100339.84;;;19.24;81.46
38038;BME280;23843;51.320;12.340;2022-10-16T07:58:52;100335.16;;;19.55;80.68
38038;BME280;23843;51.320;12.340;2022-10-16T08:01:18;100342.53;;;20.59;79.95
38038;BME280;23843;51.320;12.340;2022-10-16T08:03:44;100339.53;;;21.35;75.57
38038;BME280;23843;51.320;12.340;2022-10-16T08:06:09;100342.88;;;22.27;73.98
38038;BME280;23843;51.320;12.340;2022-10-16T08:08:35;100336.94;;;24.16;66.27
38038;BME280;23843;51.320;12.340;2022-10-16T08:11:00;100335.66;;;25.61;59.90
38038;BME280;23843;51.320;12.340;2022-10-16T08:13:28;100347.72;;;26.20;59.22
38038;BME280;23843;51.320;12.340;2022-10-16T08:15:54;100354.97;;;26.72;56.63
38038;BME280;23843;51.320;12.340;2022-10-16T08:18:19;100359.28;;;25.76;54.29
38038;BME280;23843;51.320;12.340;2022-10-16T08:20:45;100355.28;;;24.70;58.82
38038;BME280;23843;51.320;12.340;2022-10-16T08:23:11;100374.53;;;23.78;60.02
38038;BME280;23843;51.320;12.340;2022-10-16T08:25:37;100376.66;;;22.99;58.73
38038;BME280;23843;51.320;12.340;2022-10-16T08:28:03;100384.63;;;22.40;64.30
38038;BME280;23843;51.320;12.340;2022-10-16T08:30:30;100379.09;;;21.80;67.19
38038;BME280;23843;51.320;12.340;2022-10-16T08:32:55;100364.50;;;21.55;68.32
38038;BME280;23843;51.320;12.340;2022-10-16T08:35:21;100359.44;;;21.52;69.11
38038;BME280;23843;51.320;12.340;2022-10-16T08:37:46;100361.50;;;21.58;69.65
38038;BME280;23843;51.320;12.340;2022-10-16T08:40:17;100377.06;;;21.64;68.94
38038;BME280;23843;51.320;12.340;2022-10-16T08:42:56;100383.22;;;21.74;69.28
38038;BME280;23843;51.320;12.340;2022-10-16T08:45:43;100388.63;;;21.56;68.95
38038;BME280;23843;51.320;12.340;2022-10-16T08:48:20;100384.41;;;21.54;69.98
38038;BME280;23843;51.320;12.340;2022-10-16T08:50:47;100381.59;;;21.46;69.88
38038;BME280;23843;51.320;12.340;2022-10-16T08:53:16;100378.69;;;21.57;69.81
38038;BME280;23843;51.320;12.340;2022-10-16T08:55:45;100393.13;;;21.66;69.76
38038;BME280;23843;51.320;12.340;2022-10-16T08:58:13;100396.72;;;21.74;70.02
38038;BME280;23843;51.320;12.340;2022-10-16T09:00:40;100406.81;;;21.72;69.07
38038;BME280;23843;51.320;12.340;2022-10-16T09:03:16;100417.44;;;21.56;68.61
38038;BME280;23843;51.320;12.340;2022-10-16T09:05:52;100413.88;;;21.55;69.89
38038;BME280;23843;51.320;12.340;2022-10-16T09:08:27;100422.66;;;21.57;68.98
38038;BME280;23843;51.320;12.340;2022-10-16T09:10:58;100421.91;;;21.37;68.72
38038;BME280;23843;51.320;12.340;2022-10-16T09:13:27;100420.81;;;21.30;69.66
38038;BME280;23843;51.320;12.340;2022-10-16T09:16:01;100432.81;;;21.46;69.87
38038;BME280;23843;51.320;12.340;2022-10-16T09:18:37;100412.66;;;21.86;69.34
38038;BME280;23843;51.320;12.340;2022-10-16T09:21:10;100422.31;;;21.70;65.99
38038;BME280;23843;51.320;12.340;2022-10-16T09:23:39;100425.81;;;21.53;67.54
38038;BME280;23843;51.320;12.340;2022-10-16T09:26:05;100415.03;;;21.53;68.61
38038;BME280;23843;51.320;12.340;2022-10-16T09:28:34;100422.13;;;21.54;67.78
38038;BME280;23843;51.320;12.340;2022-10-16T09:31:01;100419.81;;;21.59;68.51
38038;BME280;23843;51.320;12.340;2022-10-16T09:33:30;100424.31;;;21.68;69.25
38038;BME280;23843;51.320;12.340;2022-10-16T09:35:58;100427.00;;;21.86;69.31
38038;BME280;23843;51.320;12.340;2022-10-16T09:38:26;100422.06;;;21.82;67.74
38038;BME280;23843;51.320;12.340;2022-10-16T09:40:52;100431.31;;;21.79;68.30
38038;BME280;23843;51.320;12.340;2022-10-16T09:43:21;100426.38;;;21.74;68.62
38038;BME280;23843;51.320;12.340;2022-10-16T09:45:59;100433.38;;;21.67;69.26
38038;BME280;23843;51.320;12.340;2022-10-16T09:48:30;100441.91;;;21.63;68.86
38038;BME280;23843;51.320;12.340;2022-10-16T09:50:58;100437.69;;;21.60;68.90
38038;BME280;23843;51.320;12.340;2022-10-16T09:53:26;100432.28;;;21.60;69.12
38038;BME280;23843;51.320;12.340;2022-10-16T09:56:02;100438.69;;;21.59;69.22
38038;BME280;23843;51.320;12.340;2022-10-16T09:58:27;100444.63;;;21.63;69.20
38038;BME280;23843;51.320;12.340;2022-10-16T10:00:53;100441.09;;;21.62;69.32
38038;BME280;23843;51.320;12.340;2022-10-16T10:03:33;100449.22;;;21.80;69.08
38038;BME280;23843;51.320;12.340;2022-10-16T10:06:01;100443.56;;;21.91;69.08
38038;BME280;23843;51.320;12.340;2022-10-16T10:08:29;100444.66;;;21.98;68.08
38038;BME280;23843;51.320;12.340;2022-10-16T10:10:54;100452.97;;;22.05;68.08
38038;BME280;23843;51.320;12.340;2022-10-16T10:13:21;100454.34;;;22.09;65.94
38038;BME280;23843;51.320;12.340;2022-10-16T10:15:47;100452.97;;;22.05;67.49
38038;BME280;23843;51.320;12.340;2022-10-16T10:18:17;100464.16;;;21.92;66.38
38038;BME280;23843;51.320;12.340;2022-10-16T10:20:45;100464.31;;;21.73;67.17
38038;BME280;23843;51.320;12.340;2022-10-16T10:23:20;100473.75;;;21.59;67.35
38038;BME280;23843;51.320;12.340;2022-10-16T10:25:53;100472.56;;;21.44;68.37
38038;BME280;23843;51.320;12.340;2022-10-16T10:28:42;100474.97;;;21.37;68.93
38038;BME280;23843;51.320;12.340;2022-10-16T10:31:14;100459.09;;;21.44;68.56
38038;BME280;23843;51.320;12.340;2022-10-16T10:33:44;100467.56;;;21.49;68.64
38038;BME280;23843;51.320;12.340;2022-10-16T10:36:22;100467.00;;;21.45;68.07
38038;BME280;23843;51.320;12.340;2022-10-16T10:38:53;100468.47;;;21.40;69.07
38038;BME280;23843;51.320;12.340;2022-10-16T10:41:32;100462.78;;;21.43;69.04
38038;BME280;23843;51.320;12.340;2022-10-16T10:44:07;100469.69;;;21.45;69.02
38038;BME280;23843;51.320;12.340;2022-10-16T10:46:40;100468.47;;;21.40;68.58
38038;BME280;23843;51.320;12.340;2022-10-16T10:49:15;100475.81;;;21.37;68.60
38038;BME280;23843;51.320;12.340;2022-10-16T10:51:49;100464.34;;;21.35;68.71
38038;BME280;23843;51.320;12.340;2022-10-16T10:54:23;100476.13;;;21.34;69.09
38038;BME280;23843;51.320;12.340;2022-10-16T10:56:57;100475.72;;;21.29;68.82
38038;BME280;23843;51.320;12.340;2022-10-16T10:59:35;100480.28;;;21.29;69.08
38038;BME280;23843;51.320;12.340;2022-10-16T11:02:07;100474.72;;;21.30;69.27
38038;BME280;23843;51.320;12.340;2022-10-16T11:04:52;100476.44;;;21.31;68.92
38038;BME280;23843;51.320;12.340;2022-10-16T11:07:26;100474.41;;;21.33;69.12
38038;BME280;23843;51.320;12.340;2022-10-16T11:09:56;100476.13;;;21.34;69.31
38038;BME280;23843;51.320;12.340;2022-10-16T11:12:26;100468.56;;;21.38;68.71
38038;BME280;23843;51.320;12.340;2022-10-16T11:14:56;100470.16;;;21.31;68.62
38038;BME280;23843;51.320;12.340;2022-10-16T11:17:28;100478.03;;;21.24;69.23
38038;BME280;23843;51.320;12.340;2022-10-16T11:19:58;100477.63;;;21.19;69.23
38038;BME280;23843;51.320;12.340;2022-10-16T11:22:30;100473.09;;;21.20;69.30
38038;BME280;23843;51.320;12.340;2022-10-16T11:25:02;100479.00;;;21.23;68.57
38038;BME280;23843;51.320;12.340;2022-10-16T11:27:36;100475.03;;;21.27;69.11
38038;BME280;23843;51.320;12.340;2022-10-16T11:30:06;100472.72;;;21.32;69.65
38038;BME280;23843;51.320;12.340;2022-10-16T11:32:49;100478.22;;;21.41;69.49
38038;BME280;23843;51.320;12.340;2022-10-16T11:35:21;100480.34;;;21.47;69.25
38038;BME280;23843;51.320;12.340;2022-10-16T11:37:51;100478.34;;;21.49;69.13
38038;BME280;23843;51.320;12.340;2022-10-16T11:40:22;100477.41;;;21.58;68.79
38038;BME280;23843;51.320;12.340;2022-10-16T11:42:52;100484.38;;;21.61;68.82
38038;BME280;23843;51.320;12.340;2022-10-16T11:45:26;100484.31;;;21.70;68.45
38038;BME280;23843;51.320;12.340;2022-10-16T11:47:58;100489.84;;;21.69;68.70
38038;BME280;23843;51.320;12.340;2022-10-16T11:50:30;100488.00;;;21.69;68.55
38038;BME280;23843;51.320;12.340;2022-10-16T11:53:02;100486.16;;;21.70;68.71
38038;BME280;23843;51.320;12.340;2022-10-16T11:55:31;100487.03;;;21.70;68.00
38038;BME280;23843;51.320;12.340;2022-10-16T11:58:03;100497.81;;;21.70;67.70
38038;BME280;23843;51.320;12.340;2022-10-16T12:00:37;100490.84;;;21.68;67.96
38038;BME280;23843;51.320;12.340;2022-10-16T12:03:08;100498.47;;;21.72;68.09
38038;BME280;23843;51.320;12.340;2022-10-16T12:05:52;100493.78;;;21.74;68.45
38038;BME280;23843;51.320;12.340;2022-10-16T12:08:21;100496.66;;;21.73;68.14
38038;BME280;23843;51.320;12.340;2022-10-16T12:10:48;100503.72;;;21.74;68.81
38038;BME280;23843;51.320;12.340;2022-10-16T12:13:41;100504.19;;;21.69;68.15
38038;BME280;23843;51.320;12.340;2022-10-16T12:16:20;100496.72;;;21.63;68.12
38038;BME280;23843;51.320;12.340;2022-10-16T12:18:47;100508.78;;;21.59;68.58
38038;BME280;23843;51.320;12.340;2022-10-16T12:21:13;100511.88;;;21.64;68.85
38038;BME280;23843;51.320;12.340;2022-10-16T12:23:50;100513.16;;;21.60;68.51
38038;BME280;23843;51.320;12.340;2022-10-16T12:26:24;100516.94;;;21.49;68.61
38038;BME280;23843;51.320;12.340;2022-10-16T12:28:50;100520.38;;;21.42;69.38
38038;BME280;23843;51.320;12.340;2022-10-16T12:31:16;100520.91;;;21.35;69.34
38038;BME280;23843;51.320;12.340;2022-10-16T12:33:43;100520.53;;;21.30;69.33
38038;BME280;23843;51.320;12.340;2022-10-16T12:36:27;100519.53;;;21.31;69.89
38038;BME280;23843;51.320;12.340;2022-10-16T12:38:55;100524.47;;;21.36;69.89
38038;BME280;23843;51.320;12.340;2022-10-16T12:41:25;100516.38;;;21.36;69.97
38038;BME280;23843;51.320;12.340;2022-10-16T12:43:51;100526.31;;;21.35;70.21
38038;BME280;23843;51.320;12.340;2022-10-16T12:46:23;100528.31;;;21.33;70.33
38038;BME280;23843;51.320;12.340;2022-10-16T12:48:48;100526.75;;;21.31;70.56
38038;BME280;23843;51.320;12.340;2022-10-16T12:51:23;100532.16;;;21.31;70.28
38038;BME280;23843;51.320;12.340;2022-10-16T12:53:59;100533.06;;;21.22;70.62
38038;BME280;23843;51.320;12.340;2022-10-16T12:56:31;100529.66;;;21.20;70.78
38038;BME280;23843;51.320;12.340;2022-10-16T12:59:06;100533.50;;;21.17;70.87
38038;BME280;23843;51.320;12.340;2022-10-16T13:01:42;100532.63;;;21.16;70.84
38038;BME280;23843;51.320;12.340;2022-10-16T13:04:24;100535.47;;;21.15;70.42
38038;BME280;23843;51.320;12.340;2022-10-16T13:07:03;100527.00;;;21.10;70.65
38038;BME280;23843;51.320;12.340;2022-10-16T13:09:50;100522.44;;;21.10;70.55
38038;BME280;23843;51.320;12.340;2022-10-16T13:12:36;100527.44;;;21.05;70.18
38038;BME280;23843;51.320;12.340;2022-10-16T13:15:20;100530.44;;;20.92;70.48
38038;BME280;23843;51.320;12.340;2022-10-16T13:17:53;100524.94;;;20.84;70.72
38038;BME280;23843;51.320;12.340;2022-10-16T13:20:26;100533.31;;;20.81;70.90
38038;BME280;23843;51.320;12.340;2022-10-16T13:23:02;100533.88;;;20.75;71.01
38038;BME280;23843;51.320;12.340;2022-10-16T13:25:46;100529.50;;;20.74;71.13
38038;BME280;23843;51.320;12.340;2022-10-16T13:28:17;100534.75;;;20.76;71.15
38038;BME280;23843;51.320;12.340;2022-10-16T13:30:51;100535.16;;;20.71;71.17
38038;BME280;23843;51.320;12.340;2022-10-16T13:33:19;100540.69;;;20.69;71.10
38038;BME280;23843;51.320;12.340;2022-10-16T13:35:48;100537.44;;;20.66;71.30
38038;BME280;23843;51.320;12.340;2022-10-16T13:38:16;100536.72;;;20.64;71.30
38038;BME280;23843;51.320;12.340;2022-10-16T13:40:52;100533.19;;;20.63;71.25
38038;BME280;23843;51.320;12.340;2022-10-16T13:43:19;100539.44;;;20.64;71.25
38038;BME280;23843;51.320;12.340;2022-10-16T13:45:58;100546.25;;;20.58;71.47
38038;BME280;23843;51.320;12.340;2022-10-16T13:48:24;100555.69;;;20.52;71.52
38038;BME280;23843;51.320;12.340;2022-10-16T13:50:58;100561.66;;;20.46;71.42
38038;BME280;23843;51.320;12.340;2022-10-16T13:53:24;100559.94;;;20.45;71.61
38038;BME280;23843;51.320;12.340;2022-10-16T13:55:51;100562.63;;;20.45;71.53
38038;BME280;23843;51.320;12.340;2022-10-16T13:58:16;100564.47;;;20.45;71.67
38038;BME280;23843;51.320;12.340;2022-10-16T14:00:53;100568.16;;;20.44;71.60
38038;BME280;23843;51.320;12.340;2022-10-16T14:03:19;100566.88;;;20.38;71.79
38038;BME280;23843;51.320;12.340;2022-10-16T14:05:48;100576.50;;;20.31;72.02
38038;BME280;23843;51.320;12.340;2022-10-16T14:08:14;100575.34;;;20.24;72.08
38038;BME280;23843;51.320;12.340;2022-10-16T14:10:40;100576.34;;;20.23;72.14
38038;BME280;23843;51.320;12.340;2022-10-16T14:13:12;100586.28;;;20.22;72.15
38038;BME280;23843;51.320;12.340;2022-10-16T14:15:46;100583.72;;;20.21;72.23
38038;BME280;23843;51.320;12.340;2022-10-16T14:18:16;100583.00;;;20.19;72.26
38038;BME280;23843;51.320;12.340;2022-10-16T14:20:43;100584.13;;;20.16;72.30
38038;BME280;23843;51.320;12.340;2022-10-16T14:23:20;100585.13;;;20.15;72.65
38038;BME280;23843;51.320;12.340;2022-10-16T14:25:46;100593.31;;;20.14;72.67
38038;BME280;23843;51.320;12.340;2022-10-16T14:28:17;100587.81;;;20.15;72.81
38038;BME280;23843;51.320;12.340;2022-10-16T14:30:51;100584.56;;;20.21;72.63
38038;BME280;23843;51.320;12.340;2022-10-16T14:33:22;100583.59;;;20.22;72.71
38038;BME280;23843;51.320;12.340;2022-10-16T14:36:00;100578.03;;;20.24;72.51
38038;BME280;23843;51.320;12.340;2022-10-16T14:38:26;100586.84;;;20.26;72.89
38038;BME280;23843;51.320;12.340;2022-10-16T14:40:52;100592.22;;;20.26;73.05
38038;BME280;23843;51.320;12.340;2022-10-16T14:43:21;100595.06;;;20.24;73.10
38038;BME280;23843;51.320;12.340;2022-10-16T14:45:50;100596.03;;;20.23;73.48
38038;BME280;23843;51.320;12.340;2022-10-16T14:48:17;100597.44;;;20.18;73.78
38038;BME280;23843;51.320;12.340;2022-10-16T14:50:44;100593.31;;;20.14;74.08
38038;BME280;23843;51.320;12.340;2022-10-16T14:53:11;100595.31;;;20.12;73.92
38038;BME280;23843;51.320;12.340;2022-10-16T14:55:36;100595.16;;;20.13;73.96
38038;BME280;23843;51.320;12.340;2022-10-16T14:58:02;100599.56;;;20.14;74.04
38038;BME280;23843;51.320;12.340;2022-10-16T15:00:29;100600.44;;;20.15;74.00
38038;BME280;23843;51.320;12.340;2022-10-16T15:02:54;100610.06;;;20.17;73.57
38038;BME280;23843;51.320;12.340;2022-10-16T15:05:21;100612.47;;;20.20;73.65
38038;BME280;23843;51.320;12.340;2022-10-16T15:07:47;100613.00;;;20.24;73.57
38038;BME280;23843;51.320;12.340;2022-10-16T15:10:13;100611.03;;;20.26;73.30
38038;BME280;23843;51.320;12.340;2022-10-16T15:12:38;100609.47;;;20.23;73.11
38038;BME280;23843;51.320;12.340;2022-10-16T15:15:24;100609.78;;;20.20;73.08
38038;BME280;23843;51.320;12.340;2022-10-16T15:17:52;100607.38;;;20.17;72.89
38038;BME280;23843;51.320;12.340;2022-10-16T15:20:18;100612.31;;;20.12;73.27
38038;BME280;23843;51.320;12.340;2022-10-16T15:22:43;100608.31;;;20.06;73.51
38038;BME280;23843;51.320;12.340;2022-10-16T15:25:18;100614.97;;;20.02;73.48
38038;BME280;23843;51.320;12.340;2022-10-16T15:27:47;100620.78;;;19.98;73.91
38038;BME280;23843;51.320;12.340;2022-10-16T15:30:13;100621.06;;;19.95;74.31
38038;BME280;23843;51.320;12.340;2022-10-16T15:32:38;100621.47;;;19.90;74.43
38038;BME280;23843;51.320;12.340;2022-10-16T15:35:08;100633.19;;;19.89;74.46
38038;BME280;23843;51.320;12.340;2022-10-16T15:37:33;100630.50;;;19.89;74.98
38038;BME280;23843;51.320;12.340;2022-10-16T15:39:59;100641.97;;;19.91;75.14
38038;BME280;23843;51.320;12.340;2022-10-16T15:42:24;100644.53;;;19.93;74.77
38038;BME280;23843;51.320;12.340;2022-10-16T15:44:49;100646.22;;;19.94;74.79
38038;BME280;23843;51.320;12.340;2022-10-16T15:47:15;100643.53;;;19.94;75.12
38038;BME280;23843;51.320;12.340;2022-10-16T15:49:40;100647.34;;;19.91;74.88
38038;BME280;23843;51.320;12.340;2022-10-16T15:52:07;100647.34;;;19.91;74.57
38038;BME280;23843;51.320;12.340;2022-10-16T15:54:33;100659.78;;;19.92;74.77
38038;BME280;23843;51.320;12.340;2022-10-16T15:56:58;100656.13;;;19.93;74.62
38038;BME280;23843;51.320;12.340;2022-10-16T15:59:23;100658.09;;;19.91;75.17
38038;BME280;23843;51.320;12.340;2022-10-16T16:01:49;100661.78;;;19.90;74.76
38038;BME280;23843;51.320;12.340;2022-10-16T16:04:14;100663.03;;;19.86;74.91
38038;BME280;23843;51.320;12.340;2022-10-16T16:06:39;100661.34;;;19.85;74.66
38038;BME280;23843;51.320;12.340;2022-10-16T16:09:06;100660.34;;;19.86;74.73
38038;BME280;23843;51.320;12.340;2022-10-16T16:11:31;100665.84;;;19.84;74.75
38038;BME280;23843;51.320;12.340;2022-10-16T16:13:57;100669.66;;;19.82;74.69
38038;BME280;23843;51.320;12.340;2022-10-16T16:16:22;100667.38;;;19.77;74.43
38038;BME280;23843;51.320;12.340;2022-10-16T16:18:48;100664.00;;;19.75;75.22
38038;BME280;23843;51.320;12.340;2022-10-16T16:21:13;100662.41;;;19.73;74.91
38038;BME280;23843;51.320;12.340;2022-10-16T16:23:39;100669.03;;;19.69;74.79
38038;BME280;23843;51.320;12.340;2022-10-16T16:26:08;100670.00;;;19.67;74.98
38038;BME280;23843;51.320;12.340;2022-10-16T16:28:35;100665.88;;;19.63;75.06
38038;BME280;23843;51.320;12.340;2022-10-16T16:31:01;100673.50;;;19.58;74.91
38038;BME280;23843;51.320;12.340;2022-10-16T16:33:26;100679.25;;;19.54;74.83
38038;BME280;23843;51.320;12.340;2022-10-16T16:35:56;100672.06;;;19.54;75.50
38038;BME280;23843;51.320;12.340;2022-10-16T16:38:21;100683.91;;;19.52;75.45
38038;BME280;23843;51.320;12.340;2022-10-16T16:40:47;100688.56;;;19.50;75.65
38038;BME280;23843;51.320;12.340;2022-10-16T16:43:14;100696.75;;;19.48;75.66
38038;BME280;23843;51.320;12.340;2022-10-16T16:45:39;100692.38;;;19.47;76.18
38038;BME280;23843;51.320;12.340;2022-10-16T16:48:05;100697.75;;;19.47;75.68
38038;BME280;23843;51.320;12.340;2022-10-16T16:50:35;100704.81;;;19.48;75.79
38038;BME280;23843;51.320;12.340;2022-10-16T16:53:00;100712.88;;;19.48;76.27
38038;BME280;23843;51.320;12.340;2022-10-16T16:55:25;100719.25;;;19.47;77.21
38038;BME280;23843;51.320;12.340;2022-10-16T16:57:51;100725.84;;;19.43;77.17
38038;BME280;23843;51.320;12.340;2022-10-16T17:00:18;100730.31;;;19.33;77.58
38038;BME280;23843;51.320;12.340;2022-10-16T17:02:43;100731.31;;;19.32;77.46
38038;BME280;23843;51.320;12.340;2022-10-16T17:05:09;100740.31;;;19.31;77.76
38038;BME280;23843;51.320;12.340;2022-10-16T17:07:34;100743.00;;;19.31;77.48
38038;BME280;23843;51.320;12.340;2022-10-16T17:10:00;100744.00;;;19.30;77.90
38038;BME280;23843;51.320;12.340;2022-10-16T17:12:25;100749.38;;;19.30;78.31
38038;BME280;23843;51.320;12.340;2022-10-16T17:14:51;100756.72;;;19.28;78.16
38038;BME280;23843;51.320;12.340;2022-10-16T17:17:17;100756.72;;;19.28;78.31
38038;BME280;23843;51.320;12.340;2022-10-16T17:19:43;100758.56;;;19.27;78.39